Airfield :
LOGIN :

Register | Disclaimer

   EN    FR    IT 

 










Legend :    VFR   Marginal VFR   IFR   Intensive IFR   Very Intensive IFR
Visi :
Ceiling :
>= 8 km
>= 3000ft
5 to 8 km
1000 to 3000 ft
1500m to 5 km
500 to 1000 ft
800 to 1500m
200 to 500 ft
< 800m
< 200 ft
Symbols :   Thunderstorms  Fog  Heavy snow  Heavy precipitations  Wind > 20 kt
SIGMETs :     Misc.  Thunderstorms  Icing  Turbulence  Mountain Waves  Volcanic Ashes






- Airport Elevation : 157 ft


LESB - Son Bonet

CURRENT METAR :
  • 131430Z AUTO 36003KT 330V040 9999 FEW010/// SCT022/// BKN042/// 14/11 Q1007

EXPIRED METARs :
  • 131400Z AUTO 04005KT 9999 SCT017/// BKN020/// BKN025/// 14/11 Q1007
  • 131330Z AUTO 07004KT 9999 SCT018/// SCT026/// BKN040/// 14/12 Q1006
  • 131300Z AUTO 07006KT 9999 FEW011/// SCT027/// BKN031/// 13/11 Q1006
  • 131230Z AUTO 06004KT 040V100 9999 FEW030/// SCT045/// OVC058/// 14/11 Q1006
  • 131200Z AUTO 07006KT 9999 FEW006/// SCT041/// BKN048/// 13/11 Q1006
  • 131130Z AUTO 36003KT 300V050 9999 -RA FEW010/// BKN031/// BKN037/// 14/12 Q1006

TAF N/A



MET'MAP, your aeronautical weather chart ! - Copyright ORBIFLY December 2007 - Disclaimer

ORBIFLY MET'MAP TEAM :

Programming & Development : Alexandra Zaïnal
Concept & Development : Baudouin d'Aumeries
Co-Development & Prog : Marc-Olivier Méhu
Technical & hardware support : Manuel Goepfert

Contact : metmap@orbifly.com




SOURCES & CREDITS :

   NOAA